sensor_id;sensor_type;location;lat;lon;timestamp;P1;durP1;ratioP1;P2;durP2;ratioP2
67554;SDS011;54385;53.516;49.456;2023-02-15T00:01:42;12.75;;;5.03;;
67554;SDS011;54385;53.516;49.456;2023-02-15T00:04:09;11.02;;;4.18;;
67554;SDS011;54385;53.516;49.456;2023-02-15T00:06:38;10.90;;;5.10;;
67554;SDS011;54385;53.516;49.456;2023-02-15T00:09:05;10.57;;;5.38;;
67554;SDS011;54385;53.516;49.456;2023-02-15T00:11:31;9.63;;;4.05;;
67554;SDS011;54385;53.516;49.456;2023-02-15T00:16:37;9.50;;;4.70;;
67554;SDS011;54385;53.516;49.456;2023-02-15T00:19:04;7.00;;;3.15;;
67554;SDS011;54385;53.516;49.456;2023-02-15T00:21:32;10.13;;;3.90;;
67554;SDS011;54385;53.516;49.456;2023-02-15T00:24:00;9.38;;;3.70;;
67554;SDS011;54385;53.516;49.456;2023-02-15T00:26:29;4.53;;;2.40;;
67554;SDS011;54385;53.516;49.456;2023-02-15T00:28:56;6.45;;;3.53;;
67554;SDS011;54385;53.516;49.456;2023-02-15T00:31:27;5.05;;;2.67;;
67554;SDS011;54385;53.516;49.456;2023-02-15T00:34:00;4.53;;;2.53;;
67554;SDS011;54385;53.516;49.456;2023-02-15T00:36:30;4.20;;;2.58;;
67554;SDS011;54385;53.516;49.456;2023-02-15T00:38:57;4.80;;;2.53;;
67554;SDS011;54385;53.516;49.456;2023-02-15T00:41:24;6.05;;;2.72;;
67554;SDS011;54385;53.516;49.456;2023-02-15T00:43:50;10.93;;;2.97;;
67554;SDS011;54385;53.516;49.456;2023-02-15T00:46:17;7.88;;;3.58;;
67554;SDS011;54385;53.516;49.456;2023-02-15T00:48:43;6.90;;;3.28;;
67554;SDS011;54385;53.516;49.456;2023-02-15T00:51:09;5.80;;;2.45;;
67554;SDS011;54385;53.516;49.456;2023-02-15T00:53:36;5.55;;;3.00;;
67554;SDS011;54385;53.516;49.456;2023-02-15T00:56:02;7.63;;;2.78;;
67554;SDS011;54385;53.516;49.456;2023-02-15T00:58:29;7.30;;;3.17;;
67554;SDS011;54385;53.516;49.456;2023-02-15T01:01:01;6.25;;;3.53;;
67554;SDS011;54385;53.516;49.456;2023-02-15T01:03:31;5.28;;;3.15;;
67554;SDS011;54385;53.516;49.456;2023-02-15T01:05:57;6.60;;;3.08;;
67554;SDS011;54385;53.516;49.456;2023-02-15T01:08:24;5.43;;;3.20;;
67554;SDS011;54385;53.516;49.456;2023-02-15T01:10:50;7.80;;;3.42;;
67554;SDS011;54385;53.516;49.456;2023-02-15T01:13:17;6.25;;;2.70;;
67554;SDS011;54385;53.516;49.456;2023-02-15T01:31:38;5.90;;;3.13;;
67554;SDS011;54385;53.516;49.456;2023-02-15T01:47:15;9.18;;;3.53;;
67554;SDS011;54385;53.516;49.456;2023-02-15T01:51:08;5.70;;;2.22;;
67554;SDS011;54385;53.516;49.456;2023-02-15T01:53:39;7.63;;;3.53;;
67554;SDS011;54385;53.516;49.456;2023-02-15T01:56:38;6.07;;;3.15;;
67554;SDS011;54385;53.516;49.456;2023-02-15T01:59:52;8.18;;;3.45;;
67554;SDS011;54385;53.516;49.456;2023-02-15T02:02:50;6.45;;;3.03;;
67554;SDS011;54385;53.516;49.456;2023-02-15T02:05:39;6.20;;;3.38;;
67554;SDS011;54385;53.516;49.456;2023-02-15T02:08:20;5.60;;;3.67;;
67554;SDS011;54385;53.516;49.456;2023-02-15T02:11:37;6.00;;;2.53;;
67554;SDS011;54385;53.516;49.456;2023-02-15T02:14:27;5.47;;;2.80;;
67554;SDS011;54385;53.516;49.456;2023-02-15T02:23:37;7.07;;;3.80;;
67554;SDS011;54385;53.516;49.456;2023-02-15T03:01:43;6.90;;;3.60;;
67554;SDS011;54385;53.516;49.456;2023-02-15T03:04:31;6.63;;;3.17;;
67554;SDS011;54385;53.516;49.456;2023-02-15T03:07:02;7.47;;;3.10;;
67554;SDS011;54385;53.516;49.456;2023-02-15T03:09:37;5.72;;;2.95;;
67554;SDS011;54385;53.516;49.456;2023-02-15T03:12:23;8.50;;;3.35;;
67554;SDS011;54385;53.516;49.456;2023-02-15T03:15:19;7.57;;;3.25;;
67554;SDS011;54385;53.516;49.456;2023-02-15T03:18:38;9.02;;;4.63;;
67554;SDS011;54385;53.516;49.456;2023-02-15T03:22:03;9.25;;;3.67;;
67554;SDS011;54385;53.516;49.456;2023-02-15T03:24:54;11.70;;;4.43;;
67554;SDS011;54385;53.516;49.456;2023-02-15T03:30:39;15.95;;;8.13;;
67554;SDS011;54385;53.516;49.456;2023-02-15T03:33:17;22.75;;;11.40;;
67554;SDS011;54385;53.516;49.456;2023-02-15T03:39:14;19.65;;;10.18;;
67554;SDS011;54385;53.516;49.456;2023-02-15T03:42:12;27.70;;;10.80;;
67554;SDS011;54385;53.516;49.456;2023-02-15T03:44:48;24.30;;;10.10;;
67554;SDS011;54385;53.516;49.456;2023-02-15T03:47:28;20.10;;;10.25;;
67554;SDS011;54385;53.516;49.456;2023-02-15T03:50:02;24.95;;;11.00;;
67554;SDS011;54385;53.516;49.456;2023-02-15T03:52:54;22.73;;;10.75;;
67554;SDS011;54385;53.516;49.456;2023-02-15T03:55:34;18.10;;;7.82;;
67554;SDS011;54385;53.516;49.456;2023-02-15T03:58:02;20.17;;;8.13;;
67554;SDS011;54385;53.516;49.456;2023-02-15T04:01:22;14.27;;;6.75;;
67554;SDS011;54385;53.516;49.456;2023-02-15T04:04:18;12.60;;;5.20;;
67554;SDS011;54385;53.516;49.456;2023-02-15T04:06:47;11.13;;;6.78;;
67554;SDS011;54385;53.516;49.456;2023-02-15T04:09:13;12.10;;;4.65;;
67554;SDS011;54385;53.516;49.456;2023-02-15T04:11:58;14.65;;;5.68;;
67554;SDS011;54385;53.516;49.456;2023-02-15T04:14:25;11.98;;;5.53;;
67554;SDS011;54385;53.516;49.456;2023-02-15T04:17:11;14.57;;;6.45;;
67554;SDS011;54385;53.516;49.456;2023-02-15T04:19:40;16.17;;;6.78;;
67554;SDS011;54385;53.516;49.456;2023-02-15T04:22:33;13.38;;;5.57;;
67554;SDS011;54385;53.516;49.456;2023-02-15T04:25:22;13.52;;;6.78;;
67554;SDS011;54385;53.516;49.456;2023-02-15T04:27:49;18.33;;;5.93;;
67554;SDS011;54385;53.516;49.456;2023-02-15T04:30:23;14.48;;;6.10;;
67554;SDS011;54385;53.516;49.456;2023-02-15T04:33:12;14.07;;;7.22;;
67554;SDS011;54385;53.516;49.456;2023-02-15T04:35:39;13.52;;;7.18;;
67554;SDS011;54385;53.516;49.456;2023-02-15T04:38:37;11.57;;;5.22;;
67554;SDS011;54385;53.516;49.456;2023-02-15T04:41:06;13.70;;;5.18;;
67554;SDS011;54385;53.516;49.456;2023-02-15T04:43:36;13.95;;;4.97;;
67554;SDS011;54385;53.516;49.456;2023-02-15T04:46:03;18.10;;;6.25;;
67554;SDS011;54385;53.516;49.456;2023-02-15T04:48:36;10.68;;;4.40;;
67554;SDS011;54385;53.516;49.456;2023-02-15T04:54:46;12.02;;;4.53;;
67554;SDS011;54385;53.516;49.456;2023-02-15T04:57:18;10.40;;;5.15;;
67554;SDS011;54385;53.516;49.456;2023-02-15T05:02:57;13.57;;;4.55;;
67554;SDS011;54385;53.516;49.456;2023-02-15T05:05:32;9.45;;;5.25;;
67554;SDS011;54385;53.516;49.456;2023-02-15T05:07:58;9.52;;;4.25;;
67554;SDS011;54385;53.516;49.456;2023-02-15T05:10:34;8.48;;;3.80;;
67554;SDS011;54385;53.516;49.456;2023-02-15T05:13:07;12.48;;;4.63;;
67554;SDS011;54385;53.516;49.456;2023-02-15T05:15:51;12.75;;;5.25;;
67554;SDS011;54385;53.516;49.456;2023-02-15T05:18:19;8.45;;;4.30;;
67554;SDS011;54385;53.516;49.456;2023-02-15T05:21:04;7.65;;;5.28;;
67554;SDS011;54385;53.516;49.456;2023-02-15T05:23:39;11.85;;;5.22;;
67554;SDS011;54385;53.516;49.456;2023-02-15T05:26:16;9.75;;;3.75;;
67554;SDS011;54385;53.516;49.456;2023-02-15T05:29:09;15.07;;;4.63;;
67554;SDS011;54385;53.516;49.456;2023-02-15T05:31:49;7.43;;;3.97;;
67554;SDS011;54385;53.516;49.456;2023-02-15T05:34:18;8.18;;;4.05;;
67554;SDS011;54385;53.516;49.456;2023-02-15T05:36:51;10.60;;;4.10;;
67554;SDS011;54385;53.516;49.456;2023-02-15T05:41:01;6.68;;;3.45;;
67554;SDS011;54385;53.516;49.456;2023-02-15T05:43:30;8.73;;;4.20;;
67554;SDS011;54385;53.516;49.456;2023-02-15T05:46:06;7.85;;;3.85;;
67554;SDS011;54385;53.516;49.456;2023-02-15T05:48:35;8.85;;;4.30;;
67554;SDS011;54385;53.516;49.456;2023-02-15T05:51:12;8.65;;;4.68;;
67554;SDS011;54385;53.516;49.456;2023-02-15T05:53:42;12.93;;;3.85;;
67554;SDS011;54385;53.516;49.456;2023-02-15T05:56:10;12.15;;;4.60;;
67554;SDS011;54385;53.516;49.456;2023-02-15T05:58:38;12.50;;;4.75;;
67554;SDS011;54385;53.516;49.456;2023-02-15T06:01:12;13.63;;;5.47;;
67554;SDS011;54385;53.516;49.456;2023-02-15T06:03:44;9.93;;;4.97;;
67554;SDS011;54385;53.516;49.456;2023-02-15T06:06:12;8.70;;;5.28;;
67554;SDS011;54385;53.516;49.456;2023-02-15T06:08:41;13.02;;;5.70;;
67554;SDS011;54385;53.516;49.456;2023-02-15T06:11:07;15.98;;;5.13;;
67554;SDS011;54385;53.516;49.456;2023-02-15T06:13:37;13.90;;;5.90;;
67554;SDS011;54385;53.516;49.456;2023-02-15T06:16:20;21.85;;;5.80;;
67554;SDS011;54385;53.516;49.456;2023-02-15T06:18:46;9.05;;;5.32;;
67554;SDS011;54385;53.516;49.456;2023-02-15T06:21:16;13.13;;;5.15;;
67554;SDS011;54385;53.516;49.456;2023-02-15T06:26:36;10.18;;;4.53;;
67554;SDS011;54385;53.516;49.456;2023-02-15T06:29:05;17.75;;;5.60;;
67554;SDS011;54385;53.516;49.456;2023-02-15T06:31:33;15.02;;;5.95;;
67554;SDS011;54385;53.516;49.456;2023-02-15T06:34:02;10.80;;;4.95;;
67554;SDS011;54385;53.516;49.456;2023-02-15T06:36:31;9.00;;;4.82;;
67554;SDS011;54385;53.516;49.456;2023-02-15T06:38:58;11.57;;;5.47;;
67554;SDS011;54385;53.516;49.456;2023-02-15T06:41:28;9.85;;;5.90;;
67554;SDS011;54385;53.516;49.456;2023-02-15T06:44:09;14.65;;;6.30;;
67554;SDS011;54385;53.516;49.456;2023-02-15T06:46:48;13.20;;;6.07;;
67554;SDS011;54385;53.516;49.456;2023-02-15T06:49:18;15.95;;;6.50;;
67554;SDS011;54385;53.516;49.456;2023-02-15T06:51:47;18.27;;;6.28;;
67554;SDS011;54385;53.516;49.456;2023-02-15T06:54:14;14.23;;;6.68;;
67554;SDS011;54385;53.516;49.456;2023-02-15T06:56:40;16.15;;;7.13;;
67554;SDS011;54385;53.516;49.456;2023-02-15T06:59:07;16.33;;;7.60;;
67554;SDS011;54385;53.516;49.456;2023-02-15T07:01:37;10.57;;;4.82;;
67554;SDS011;54385;53.516;49.456;2023-02-15T07:04:07;16.60;;;6.95;;
67554;SDS011;54385;53.516;49.456;2023-02-15T07:06:33;16.50;;;7.93;;
67554;SDS011;54385;53.516;49.456;2023-02-15T07:09:28;17.02;;;8.88;;
67554;SDS011;54385;53.516;49.456;2023-02-15T07:11:57;15.57;;;7.95;;
67554;SDS011;54385;53.516;49.456;2023-02-15T07:14:45;21.10;;;8.35;;
67554;SDS011;54385;53.516;49.456;2023-02-15T07:17:47;14.63;;;8.00;;
67554;SDS011;54385;53.516;49.456;2023-02-15T07:20:26;22.73;;;9.10;;
67554;SDS011;54385;53.516;49.456;2023-02-15T07:23:15;14.50;;;6.90;;
67554;SDS011;54385;53.516;49.456;2023-02-15T07:25:57;17.98;;;8.63;;
67554;SDS011;54385;53.516;49.456;2023-02-15T07:28:33;20.17;;;10.13;;
67554;SDS011;54385;53.516;49.456;2023-02-15T07:31:01;14.07;;;6.90;;
67554;SDS011;54385;53.516;49.456;2023-02-15T07:33:30;13.18;;;6.40;;
67554;SDS011;54385;53.516;49.456;2023-02-15T07:35:57;18.95;;;7.22;;
67554;SDS011;54385;53.516;49.456;2023-02-15T07:38:29;15.85;;;7.43;;
67554;SDS011;54385;53.516;49.456;2023-02-15T07:41:11;16.90;;;8.38;;
67554;SDS011;54385;53.516;49.456;2023-02-15T07:43:48;13.57;;;6.50;;
67554;SDS011;54385;53.516;49.456;2023-02-15T07:46:22;14.27;;;6.78;;
67554;SDS011;54385;53.516;49.456;2023-02-15T07:48:48;14.68;;;5.72;;
67554;SDS011;54385;53.516;49.456;2023-02-15T07:51:15;14.73;;;6.63;;
67554;SDS011;54385;53.516;49.456;2023-02-15T07:53:42;15.75;;;6.63;;
67554;SDS011;54385;53.516;49.456;2023-02-15T07:56:12;14.60;;;7.72;;
67554;SDS011;54385;53.516;49.456;2023-02-15T07:58:40;15.75;;;7.20;;
67554;SDS011;54385;53.516;49.456;2023-02-15T08:01:22;15.32;;;6.28;;
67554;SDS011;54385;53.516;49.456;2023-02-15T08:04:11;14.43;;;6.07;;
67554;SDS011;54385;53.516;49.456;2023-02-15T08:06:41;12.98;;;5.97;;
67554;SDS011;54385;53.516;49.456;2023-02-15T08:09:07;13.18;;;6.20;;
67554;SDS011;54385;53.516;49.456;2023-02-15T08:11:35;14.02;;;6.93;;
67554;SDS011;54385;53.516;49.456;2023-02-15T08:16:49;9.75;;;5.55;;
67554;SDS011;54385;53.516;49.456;2023-02-15T08:19:19;12.48;;;5.15;;
67554;SDS011;54385;53.516;49.456;2023-02-15T08:24:19;11.40;;;5.13;;
67554;SDS011;54385;53.516;49.456;2023-02-15T08:26:59;10.52;;;5.95;;
67554;SDS011;54385;53.516;49.456;2023-02-15T08:29:29;11.93;;;5.72;;
67554;SDS011;54385;53.516;49.456;2023-02-15T08:32:00;9.32;;;4.22;;
67554;SDS011;54385;53.516;49.456;2023-02-15T08:34:33;9.63;;;4.85;;
67554;SDS011;54385;53.516;49.456;2023-02-15T08:37:10;11.32;;;4.07;;
67554;SDS011;54385;53.516;49.456;2023-02-15T08:40:03;8.93;;;3.38;;
67554;SDS011;54385;53.516;49.456;2023-02-15T08:42:32;10.10;;;4.43;;
67554;SDS011;54385;53.516;49.456;2023-02-15T08:45:02;8.85;;;3.97;;
67554;SDS011;54385;53.516;49.456;2023-02-15T08:47:30;8.10;;;4.15;;
67554;SDS011;54385;53.516;49.456;2023-02-15T08:49:59;8.90;;;3.65;;
67554;SDS011;54385;53.516;49.456;2023-02-15T08:54:55;9.82;;;5.32;;
67554;SDS011;54385;53.516;49.456;2023-02-15T08:57:22;10.20;;;4.90;;
67554;SDS011;54385;53.516;49.456;2023-02-15T09:00:05;10.40;;;5.35;;
67554;SDS011;54385;53.516;49.456;2023-02-15T09:02:32;10.00;;;5.03;;
67554;SDS011;54385;53.516;49.456;2023-02-15T09:04:59;8.52;;;4.80;;
67554;SDS011;54385;53.516;49.456;2023-02-15T09:07:25;9.95;;;5.03;;
67554;SDS011;54385;53.516;49.456;2023-02-15T09:09:55;7.60;;;4.35;;
67554;SDS011;54385;53.516;49.456;2023-02-15T09:12:22;7.25;;;4.35;;
67554;SDS011;54385;53.516;49.456;2023-02-15T09:14:51;8.55;;;4.13;;
67554;SDS011;54385;53.516;49.456;2023-02-15T09:17:17;12.98;;;5.32;;
67554;SDS011;54385;53.516;49.456;2023-02-15T09:19:44;12.85;;;5.57;;
67554;SDS011;54385;53.516;49.456;2023-02-15T09:22:13;10.07;;;4.93;;
67554;SDS011;54385;53.516;49.456;2023-02-15T09:24:42;9.38;;;4.53;;
67554;SDS011;54385;53.516;49.456;2023-02-15T09:27:09;9.02;;;4.47;;
67554;SDS011;54385;53.516;49.456;2023-02-15T09:32:03;10.18;;;5.13;;
67554;SDS011;54385;53.516;49.456;2023-02-15T09:34:32;8.80;;;4.55;;
67554;SDS011;54385;53.516;49.456;2023-02-15T09:37:04;7.57;;;3.67;;
67554;SDS011;54385;53.516;49.456;2023-02-15T09:39:34;10.27;;;4.70;;
67554;SDS011;54385;53.516;49.456;2023-02-15T09:51:03;6.38;;;2.80;;
67554;SDS011;54385;53.516;49.456;2023-02-15T09:56:33;7.35;;;3.40;;
67554;SDS011;54385;53.516;49.456;2023-02-15T10:07:27;7.22;;;3.20;;
67554;SDS011;54385;53.516;49.456;2023-02-15T10:10:24;9.55;;;3.95;;
67554;SDS011;54385;53.516;49.456;2023-02-15T10:12:55;12.07;;;4.15;;
67554;SDS011;54385;53.516;49.456;2023-02-15T10:18:07;10.10;;;3.78;;
67554;SDS011;54385;53.516;49.456;2023-02-15T10:21:14;7.85;;;3.90;;
67554;SDS011;54385;53.516;49.456;2023-02-15T10:24:19;11.63;;;5.53;;
67554;SDS011;54385;53.516;49.456;2023-02-15T10:27:26;9.90;;;5.05;;
67554;SDS011;54385;53.516;49.456;2023-02-15T10:30:02;14.52;;;5.85;;
67554;SDS011;54385;53.516;49.456;2023-02-15T10:50:56;7.90;;;4.25;;
67554;SDS011;54385;53.516;49.456;2023-02-15T10:53:49;12.60;;;4.30;;
67554;SDS011;54385;53.516;49.456;2023-02-15T10:56:34;7.65;;;3.78;;
67554;SDS011;54385;53.516;49.456;2023-02-15T11:02:23;7.00;;;3.40;;
67554;SDS011;54385;53.516;49.456;2023-02-15T11:05:57;4.97;;;3.13;;
67554;SDS011;54385;53.516;49.456;2023-02-15T11:09:02;7.38;;;3.03;;
67554;SDS011;54385;53.516;49.456;2023-02-15T11:11:44;8.32;;;3.60;;
67554;SDS011;54385;53.516;49.456;2023-02-15T11:14:21;8.13;;;3.65;;
67554;SDS011;54385;53.516;49.456;2023-02-15T11:17:04;9.55;;;4.45;;
67554;SDS011;54385;53.516;49.456;2023-02-15T11:24:40;11.15;;;4.57;;
67554;SDS011;54385;53.516;49.456;2023-02-15T11:27:19;10.75;;;4.25;;
67554;SDS011;54385;53.516;49.456;2023-02-15T11:30:01;5.40;;;3.58;;
67554;SDS011;54385;53.516;49.456;2023-02-15T11:36:08;9.32;;;4.15;;
67554;SDS011;54385;53.516;49.456;2023-02-15T11:38:50;8.50;;;3.95;;
67554;SDS011;54385;53.516;49.456;2023-02-15T11:41:24;7.97;;;3.95;;
67554;SDS011;54385;53.516;49.456;2023-02-15T11:44:39;6.10;;;3.45;;
67554;SDS011;54385;53.516;49.456;2023-02-15T11:47:01;10.00;;;3.67;;
67554;SDS011;54385;53.516;49.456;2023-02-15T11:50:14;7.03;;;3.08;;
67554;SDS011;54385;53.516;49.456;2023-02-15T11:52:44;7.30;;;3.83;;
67554;SDS011;54385;53.516;49.456;2023-02-15T11:55:21;8.30;;;3.92;;
67554;SDS011;54385;53.516;49.456;2023-02-15T12:14:46;7.93;;;3.47;;
67554;SDS011;54385;53.516;49.456;2023-02-15T12:21:09;5.35;;;2.70;;
67554;SDS011;54385;53.516;49.456;2023-02-15T12:27:30;6.03;;;2.95;;
67554;SDS011;54385;53.516;49.456;2023-02-15T12:30:45;4.70;;;2.40;;
67554;SDS011;54385;53.516;49.456;2023-02-15T12:33:28;6.75;;;3.60;;
67554;SDS011;54385;53.516;49.456;2023-02-15T12:36:20;7.47;;;3.97;;
67554;SDS011;54385;53.516;49.456;2023-02-15T12:50:05;6.57;;;3.42;;
67554;SDS011;54385;53.516;49.456;2023-02-15T12:56:45;6.60;;;3.60;;
67554;SDS011;54385;53.516;49.456;2023-02-15T13:02:45;9.75;;;4.00;;
67554;SDS011;54385;53.516;49.456;2023-02-15T13:09:49;4.10;;;2.53;;
67554;SDS011;54385;53.516;49.456;2023-02-15T13:16:12;9.95;;;4.65;;
67554;SDS011;54385;53.516;49.456;2023-02-15T13:23:46;7.68;;;3.33;;
67554;SDS011;54385;53.516;49.456;2023-02-15T13:26:19;7.88;;;3.72;;
67554;SDS011;54385;53.516;49.456;2023-02-15T13:33:09;5.38;;;3.35;;
67554;SDS011;54385;53.516;49.456;2023-02-15T13:38:54;5.90;;;3.28;;
67554;SDS011;54385;53.516;49.456;2023-02-15T13:44:49;8.82;;;3.42;;
67554;SDS011;54385;53.516;49.456;2023-02-15T13:47:27;6.88;;;3.13;;
67554;SDS011;54385;53.516;49.456;2023-02-15T13:55:40;8.68;;;3.22;;
67554;SDS011;54385;53.516;49.456;2023-02-15T13:58:27;5.97;;;2.58;;
67554;SDS011;54385;53.516;49.456;2023-02-15T14:04:50;7.30;;;3.42;;
67554;SDS011;54385;53.516;49.456;2023-02-15T14:16:50;4.05;;;2.55;;
67554;SDS011;54385;53.516;49.456;2023-02-15T14:23:24;4.65;;;2.03;;
67554;SDS011;54385;53.516;49.456;2023-02-15T14:26:03;3.92;;;1.80;;
67554;SDS011;54385;53.516;49.456;2023-02-15T14:28:49;4.53;;;2.33;;
67554;SDS011;54385;53.516;49.456;2023-02-15T14:31:45;5.50;;;2.78;;
67554;SDS011;54385;53.516;49.456;2023-02-15T14:34:59;7.45;;;4.30;;
67554;SDS011;54385;53.516;49.456;2023-02-15T14:40:51;7.90;;;3.40;;
67554;SDS011;54385;53.516;49.456;2023-02-15T14:48:55;6.18;;;2.78;;
67554;SDS011;54385;53.516;49.456;2023-02-15T14:54:52;8.70;;;4.53;;
67554;SDS011;54385;53.516;49.456;2023-02-15T14:59:27;9.75;;;3.95;;
67554;SDS011;54385;53.516;49.456;2023-02-15T15:07:47;9.45;;;4.22;;
67554;SDS011;54385;53.516;49.456;2023-02-15T15:22:20;9.20;;;3.97;;
67554;SDS011;54385;53.516;49.456;2023-02-15T15:25:00;7.28;;;3.60;;
67554;SDS011;54385;53.516;49.456;2023-02-15T15:49:44;9.77;;;3.13;;
67554;SDS011;54385;53.516;49.456;2023-02-15T15:52:20;6.28;;;2.92;;
67554;SDS011;54385;53.516;49.456;2023-02-15T15:54:48;4.25;;;2.08;;
67554;SDS011;54385;53.516;49.456;2023-02-15T15:57:27;4.43;;;3.10;;
67554;SDS011;54385;53.516;49.456;2023-02-15T15:59:56;5.30;;;2.90;;
67554;SDS011;54385;53.516;49.456;2023-02-15T16:02:25;5.38;;;2.67;;
67554;SDS011;54385;53.516;49.456;2023-02-15T16:04:52;5.35;;;3.00;;
67554;SDS011;54385;53.516;49.456;2023-02-15T16:07:27;5.68;;;2.30;;
67554;SDS011;54385;53.516;49.456;2023-02-15T16:12:24;6.80;;;2.42;;
67554;SDS011;54385;53.516;49.456;2023-02-15T16:14:56;5.20;;;2.58;;
67554;SDS011;54385;53.516;49.456;2023-02-15T16:17:28;6.15;;;2.95;;
67554;SDS011;54385;53.516;49.456;2023-02-15T16:20:11;8.02;;;2.70;;
67554;SDS011;54385;53.516;49.456;2023-02-15T16:22:48;2.33;;;1.73;;
67554;SDS011;54385;53.516;49.456;2023-02-15T16:25:35;5.30;;;3.03;;
67554;SDS011;54385;53.516;49.456;2023-02-15T16:28:12;6.68;;;3.20;;
67554;SDS011;54385;53.516;49.456;2023-02-15T16:30:39;6.07;;;2.75;;
67554;SDS011;54385;53.516;49.456;2023-02-15T16:35:57;8.70;;;3.58;;
67554;SDS011;54385;53.516;49.456;2023-02-15T16:41:25;8.32;;;3.28;;
67554;SDS011;54385;53.516;49.456;2023-02-15T16:43:54;8.65;;;3.97;;
67554;SDS011;54385;53.516;49.456;2023-02-15T16:46:25;12.88;;;4.07;;
67554;SDS011;54385;53.516;49.456;2023-02-15T16:49:00;9.55;;;4.32;;
67554;SDS011;54385;53.516;49.456;2023-02-15T16:51:31;4.70;;;2.35;;
67554;SDS011;54385;53.516;49.456;2023-02-15T16:54:04;5.75;;;2.50;;
67554;SDS011;54385;53.516;49.456;2023-02-15T16:56:42;5.80;;;2.78;;
67554;SDS011;54385;53.516;49.456;2023-02-15T16:59:34;8.15;;;3.80;;
67554;SDS011;54385;53.516;49.456;2023-02-15T17:02:05;11.70;;;4.47;;
67554;SDS011;54385;53.516;49.456;2023-02-15T17:08:03;8.43;;;4.00;;
67554;SDS011;54385;53.516;49.456;2023-02-15T17:14:09;12.05;;;4.65;;
67554;SDS011;54385;53.516;49.456;2023-02-15T17:16:58;5.38;;;2.13;;
67554;SDS011;54385;53.516;49.456;2023-02-15T17:19:49;7.63;;;3.47;;
67554;SDS011;54385;53.516;49.456;2023-02-15T17:22:54;6.65;;;3.72;;
67554;SDS011;54385;53.516;49.456;2023-02-15T17:25:39;7.40;;;4.20;;
67554;SDS011;54385;53.516;49.456;2023-02-15T17:28:19;7.75;;;2.83;;
67554;SDS011;54385;53.516;49.456;2023-02-15T17:30:59;8.18;;;2.80;;
67554;SDS011;54385;53.516;49.456;2023-02-15T17:36:02;9.05;;;4.07;;
67554;SDS011;54385;53.516;49.456;2023-02-15T17:39:18;9.02;;;4.00;;
67554;SDS011;54385;53.516;49.456;2023-02-15T17:41:55;12.65;;;5.47;;
67554;SDS011;54385;53.516;49.456;2023-02-15T17:44:24;8.88;;;4.63;;
67554;SDS011;54385;53.516;49.456;2023-02-15T17:46:50;8.07;;;4.30;;
67554;SDS011;54385;53.516;49.456;2023-02-15T17:49:24;9.75;;;4.50;;
67554;SDS011;54385;53.516;49.456;2023-02-15T17:52:11;9.60;;;4.72;;
67554;SDS011;54385;53.516;49.456;2023-02-15T17:54:49;11.50;;;5.55;;
67554;SDS011;54385;53.516;49.456;2023-02-15T17:57:33;10.70;;;3.90;;
67554;SDS011;54385;53.516;49.456;2023-02-15T18:00:09;10.05;;;4.47;;
67554;SDS011;54385;53.516;49.456;2023-02-15T18:02:57;18.25;;;6.05;;
67554;SDS011;54385;53.516;49.456;2023-02-15T18:05:42;12.27;;;5.45;;
67554;SDS011;54385;53.516;49.456;2023-02-15T18:08:44;6.60;;;3.35;;
67554;SDS011;54385;53.516;49.456;2023-02-15T18:11:32;3.72;;;2.97;;
67554;SDS011;54385;53.516;49.456;2023-02-15T18:14:05;11.90;;;3.28;;
67554;SDS011;54385;53.516;49.456;2023-02-15T18:16:38;5.13;;;2.65;;
67554;SDS011;54385;53.516;49.456;2023-02-15T18:19:20;7.65;;;3.80;;
67554;SDS011;54385;53.516;49.456;2023-02-15T18:21:52;8.07;;;2.45;;
67554;SDS011;54385;53.516;49.456;2023-02-15T18:24:22;6.03;;;4.25;;
67554;SDS011;54385;53.516;49.456;2023-02-15T18:26:53;7.00;;;3.67;;
67554;SDS011;54385;53.516;49.456;2023-02-15T18:29:20;6.68;;;3.45;;
67554;SDS011;54385;53.516;49.456;2023-02-15T18:31:47;6.50;;;3.05;;
67554;SDS011;54385;53.516;49.456;2023-02-15T18:34:21;5.53;;;3.15;;
67554;SDS011;54385;53.516;49.456;2023-02-15T18:37:05;5.50;;;2.17;;
67554;SDS011;54385;53.516;49.456;2023-02-15T18:39:38;6.22;;;3.58;;
67554;SDS011;54385;53.516;49.456;2023-02-15T18:42:08;8.43;;;3.67;;
67554;SDS011;54385;53.516;49.456;2023-02-15T18:44:43;8.40;;;3.63;;
67554;SDS011;54385;53.516;49.456;2023-02-15T18:47:12;6.25;;;2.70;;
67554;SDS011;54385;53.516;49.456;2023-02-15T18:49:38;9.57;;;3.78;;
67554;SDS011;54385;53.516;49.456;2023-02-15T18:52:04;12.18;;;4.40;;
67554;SDS011;54385;53.516;49.456;2023-02-15T18:54:31;9.93;;;4.47;;
67554;SDS011;54385;53.516;49.456;2023-02-15T18:57:08;8.00;;;3.40;;
67554;SDS011;54385;53.516;49.456;2023-02-15T18:59:39;8.93;;;4.15;;
67554;SDS011;54385;53.516;49.456;2023-02-15T19:02:15;5.10;;;3.10;;
67554;SDS011;54385;53.516;49.456;2023-02-15T19:04:43;11.13;;;3.90;;
67554;SDS011;54385;53.516;49.456;2023-02-15T19:07:21;7.10;;;3.95;;
67554;SDS011;54385;53.516;49.456;2023-02-15T19:09:55;10.55;;;4.32;;
67554;SDS011;54385;53.516;49.456;2023-02-15T19:12:23;9.35;;;4.50;;
67554;SDS011;54385;53.516;49.456;2023-02-15T19:14:53;11.32;;;4.68;;
67554;SDS011;54385;53.516;49.456;2023-02-15T19:17:23;6.32;;;2.90;;
67554;SDS011;54385;53.516;49.456;2023-02-15T19:19:50;7.18;;;4.03;;
67554;SDS011;54385;53.516;49.456;2023-02-15T19:24:45;10.55;;;4.38;;
67554;SDS011;54385;53.516;49.456;2023-02-15T19:27:22;11.60;;;4.50;;
67554;SDS011;54385;53.516;49.456;2023-02-15T19:30:03;9.27;;;3.65;;
67554;SDS011;54385;53.516;49.456;2023-02-15T19:32:43;5.97;;;2.85;;
67554;SDS011;54385;53.516;49.456;2023-02-15T19:35:30;8.05;;;3.08;;
67554;SDS011;54385;53.516;49.456;2023-02-15T19:38:24;9.07;;;3.88;;
67554;SDS011;54385;53.516;49.456;2023-02-15T19:41:06;5.85;;;2.92;;
67554;SDS011;54385;53.516;49.456;2023-02-15T19:44:01;9.30;;;4.57;;
67554;SDS011;54385;53.516;49.456;2023-02-15T19:46:30;9.25;;;4.28;;
67554;SDS011;54385;53.516;49.456;2023-02-15T19:49:01;9.20;;;4.05;;
67554;SDS011;54385;53.516;49.456;2023-02-15T19:51:28;7.13;;;3.30;;
67554;SDS011;54385;53.516;49.456;2023-02-15T19:54:28;10.80;;;3.90;;
67554;SDS011;54385;53.516;49.456;2023-02-15T19:57:12;8.90;;;4.68;;
67554;SDS011;54385;53.516;49.456;2023-02-15T19:59:41;13.57;;;4.35;;
67554;SDS011;54385;53.516;49.456;2023-02-15T20:02:14;9.88;;;4.25;;
67554;SDS011;54385;53.516;49.456;2023-02-15T20:04:44;6.88;;;3.13;;
67554;SDS011;54385;53.516;49.456;2023-02-15T20:09:46;7.05;;;3.88;;
67554;SDS011;54385;53.516;49.456;2023-02-15T20:12:20;8.27;;;3.67;;
67554;SDS011;54385;53.516;49.456;2023-02-15T20:14:53;6.63;;;3.08;;
67554;SDS011;54385;53.516;49.456;2023-02-15T20:17:22;7.78;;;3.95;;
67554;SDS011;54385;53.516;49.456;2023-02-15T20:19:49;11.82;;;3.95;;
67554;SDS011;54385;53.516;49.456;2023-02-15T20:22:25;8.77;;;3.67;;
67554;SDS011;54385;53.516;49.456;2023-02-15T20:24:53;11.18;;;4.47;;
67554;SDS011;54385;53.516;49.456;2023-02-15T20:27:23;10.43;;;3.40;;
67554;SDS011;54385;53.516;49.456;2023-02-15T20:32:21;11.45;;;4.32;;
67554;SDS011;54385;53.516;49.456;2023-02-15T20:34:48;10.40;;;3.47;;
67554;SDS011;54385;53.516;49.456;2023-02-15T20:37:21;15.98;;;4.95;;
67554;SDS011;54385;53.516;49.456;2023-02-15T20:39:50;11.82;;;4.15;;
67554;SDS011;54385;53.516;49.456;2023-02-15T20:42:17;6.93;;;3.55;;
67554;SDS011;54385;53.516;49.456;2023-02-15T20:44:46;7.50;;;3.95;;
67554;SDS011;54385;53.516;49.456;2023-02-15T20:47:13;6.13;;;3.60;;